台北 の空港の天気 - METARとTAF

台湾桃園国際空港 ( RCTP / TPE ) - 台湾 台北市
飛行場実況気象(Metar)
観測時間04/22 00:30 CST (04/21 16:30 UTC)
風向・風速北 2m/s
視程10km以上
天気現象
少しの雲 雲底高度 610m
全天の8割程度の雲 雲底高度 1830m
気温24℃
湿度94%
気圧1009hPa
METARRCTP 211630Z 01003KT 330V040 9999 FEW020 BKN060 24/23 Q1009 NOSIG RMK A2981
過去の天気等 Google飛行場航空写真 Wunderground天気予報

過去48時間のMETAR

飛行場予報(TAF)
発表時間: 4/21 19:00 CST (4/21 11:00 UTC)
予報対象時間: 21日20時 CST ~ 23日2時 CST
風向・風速南西 3m/s
視程10km以上
少しの雲 雲底高度 460m
全天の8割程度の雲 雲底高度 980m
21日21時 CST ~ 22日1時 CST に一時的に
風向・風速北北東 3m/s
視程3000m
天気現象しゅう雨
少しの雲 雲底高度 240m
少しの積乱雲 雲底高度 460m
全天の8割程度の雲 雲底高度 550m
全天の8割程度の雲 雲底高度 1220m
22日1時 CST ~ 22日5時 CST に一時的に
風向・風速北東 3m/s
視程4000m
天気現象もや
少しの雲 雲底高度 300m
全天の8割程度の雲 雲底高度 520m
全天の8割程度の雲 雲底高度 1220m
22日14時 CST ~ 22日18時 CST に一時的に
風向・風速北北西 3m/s
視程4000m
天気現象しゅう雨
少しの雲 雲底高度 240m
全天の8割程度の雲 雲底高度 400m
少しの積乱雲 雲底高度 460m
全天の8割程度の雲 雲底高度 1220m
TAF RCTP 211100Z 2112/2218 23005KT 9999 FEW015 BKN032
TEMPO 2113/2117 03005KT 3000 SHRA FEW008 FEW015CB BKN018 BKN040
TEMPO 2117/2121 05005KT 4000 BR FEW010 BKN017 BKN040
TEMPO 2206/2210 33005KT 4000 SHRA FEW008 BKN013 FEW015CB BKN040